Time;durP1;ratioP1;P1;durP2;ratioP2;P2;SDS_P1;SDS_P2;PMS_P1;PMS_P2;Temp;Humidity;BMP_temperature;BMP_pressure;BME280_temperature;BME280_humidity;BME280_pressure;Samples;Min_cycle;Max_cycle;Signal;HPM_P1;HPM_P2
2024/01/07 00:02:08;;;;;;;23.02;10.13;;;;;;;2.77;100.00;96710.53;4983353;28;20434;-61
2024/01/07 00:04:35;;;;;;;32.90;11.02;;;;;;;2.77;100.00;96711.38;4980579;28;20057;-61
2024/01/07 00:07:01;;;;;;;25.60;10.75;;;;;;;2.84;100.00;96711.31;4984340;28;20056;-61
2024/01/07 00:09:28;;;;;;;30.83;10.70;;;;;;;2.74;100.00;96709.13;4977402;28;20125;-61
2024/01/07 00:11:55;;;;;;;46.58;12.45;;;;;;;2.75;100.00;96721.44;4981685;28;20050;-61
2024/01/07 00:14:21;;;;;;;35.47;13.02;;;;;;;2.77;100.00;96731.94;4984139;28;20111;-61
2024/01/07 00:16:48;;;;;;;36.08;13.48;;;;;;;2.84;100.00;96744.19;4983662;28;20034;-61
2024/01/07 00:19:14;;;;;;;35.25;10.38;;;;;;;2.75;100.00;96740.16;4983532;28;20053;-61
2024/01/07 00:21:41;;;;;;;69.63;12.40;;;;;;;2.74;100.00;96735.88;4979645;28;20453;-61
2024/01/07 00:24:08;;;;;;;49.30;12.48;;;;;;;2.73;100.00;96727.00;4976299;28;20047;-61
2024/01/07 00:26:34;;;;;;;53.10;10.88;;;;;;;2.72;100.00;96735.25;4978714;28;20528;-61
2024/01/07 00:29:01;;;;;;;50.80;12.13;;;;;;;2.77;100.00;96745.31;4970627;28;20050;-61
2024/01/07 00:31:27;;;;;;;55.40;11.55;;;;;;;2.76;100.00;96741.00;4956690;28;20100;-61
2024/01/07 00:33:54;;;;;;;25.77;11.07;;;;;;;2.77;100.00;96738.09;4982651;28;20049;-62
2024/01/07 00:36:21;;;;;;;80.43;14.25;;;;;;;2.65;100.00;96735.28;4996199;28;20457;-61
2024/01/07 00:38:47;;;;;;;91.28;12.10;;;;;;;2.70;100.00;96750.69;4977710;28;20104;-61
2024/01/07 00:41:14;;;;;;;46.20;11.38;;;;;;;2.67;100.00;96735.91;4983955;28;20049;-61
2024/01/07 00:43:41;;;;;;;39.33;11.75;;;;;;;2.69;100.00;96744.53;4986580;28;20050;-61
2024/01/07 00:46:07;;;;;;;52.33;11.70;;;;;;;2.66;100.00;96742.31;4982385;28;20047;-62
2024/01/07 00:48:34;;;;;;;76.65;16.23;;;;;;;2.67;100.00;96748.44;4983662;28;20089;-61
2024/01/07 00:51:00;;;;;;;64.90;11.68;;;;;;;2.56;100.00;96744.63;4985556;28;20049;-62
2024/01/07 00:53:27;;;;;;;65.15;12.25;;;;;;;2.58;100.00;96746.03;4981516;28;20041;-61
2024/01/07 00:55:54;;;;;;;128.68;14.90;;;;;;;2.60;100.00;96757.34;4987534;28;20471;-61
2024/01/07 00:58:21;;;;;;;32.25;9.52;;;;;;;2.68;100.00;96752.75;4977418;28;20568;-61
2024/01/07 01:00:47;;;;;;;31.30;10.18;;;;;;;2.58;100.00;96751.38;4981751;28;20053;-61
2024/01/07 01:03:14;;;;;;;111.55;16.45;;;;;;;2.58;100.00;96754.06;4984805;28;20490;-61
2024/01/07 01:05:41;;;;;;;135.63;16.00;;;;;;;2.58;100.00;96756.72;4983318;28;20043;-61
2024/01/07 01:08:07;;;;;;;56.50;12.45;;;;;;;2.60;100.00;96759.19;4986087;28;20046;-61
2024/01/07 01:10:34;;;;;;;133.48;19.90;;;;;;;2.62;100.00;96767.81;4987685;28;20077;-62
2024/01/07 01:13:00;;;;;;;60.90;13.55;;;;;;;2.57;100.00;96765.78;4980037;28;20487;-62
2024/01/07 01:15:27;;;;;;;68.60;11.95;;;;;;;2.58;100.00;96766.63;4989812;28;20056;-62
2024/01/07 01:17:54;;;;;;;40.40;12.02;;;;;;;2.60;100.00;96765.38;4989032;28;20196;-62
2024/01/07 01:20:20;;;;;;;89.97;13.85;;;;;;;2.57;100.00;96767.63;4981225;28;20066;-62
2024/01/07 01:22:47;;;;;;;63.40;14.60;;;;;;;2.65;100.00;96780.75;4984797;28;20129;-62
2024/01/07 01:25:14;;;;;;;85.55;12.65;;;;;;;2.48;100.00;96767.09;4985608;28;20058;-62
2024/01/07 01:27:41;;;;;;;25.83;10.70;;;;;;;2.49;100.00;96776.72;4982704;28;20061;-61
2024/01/07 01:30:07;;;;;;;66.00;11.02;;;;;;;2.48;100.00;96785.78;4978452;28;20042;-62
2024/01/07 01:32:35;;;;;;;23.35;10.73;;;;;;;2.49;100.00;96778.56;4978300;28;20234;-61
2024/01/07 01:35:01;;;;;;;39.08;14.32;;;;;;;2.58;100.00;96791.47;4979010;28;20086;-61
2024/01/07 01:37:28;;;;;;;39.25;12.63;;;;;;;2.54;100.00;96790.25;4986742;28;20046;-62
2024/01/07 01:39:55;;;;;;;41.42;14.93;;;;;;;2.56;100.00;96795.41;4980768;28;20051;-61
2024/01/07 01:42:21;;;;;;;42.47;12.27;;;;;;;2.38;100.00;96785.41;4979339;28;20414;-61
2024/01/07 01:44:48;;;;;;;25.73;12.00;;;;;;;2.46;100.00;96782.50;4986296;28;20053;-61
2024/01/07 01:47:16;;;;;;;28.75;13.30;;;;;;;2.46;100.00;96796.69;4986212;28;20031;-61
2024/01/07 01:49:42;;;;;;;30.08;13.15;;;;;;;2.51;100.00;96787.22;4980014;28;20074;-61
2024/01/07 01:52:09;;;;;;;33.08;14.65;;;;;;;2.54;100.00;96794.81;4980649;28;20073;-61
2024/01/07 01:54:36;;;;;;;29.30;10.93;;;;;;;2.55;100.00;96789.22;4981985;28;20078;-61
2024/01/07 01:57:04;;;;;;;26.80;11.77;;;;;;;2.52;100.00;96776.31;4982156;28;20478;-62
2024/01/07 01:59:33;;;;;;;21.15;10.73;;;;;;;2.52;100.00;96772.81;4988371;28;20147;-61
2024/01/07 02:02:01;;;;;;;17.35;9.25;;;;;;;2.55;100.00;96777.72;4975040;28;20051;-61
2024/01/07 02:04:28;;;;;;;24.27;12.00;;;;;;;2.46;100.00;96767.28;4984033;28;20038;-61
2024/01/07 02:06:55;;;;;;;28.02;11.77;;;;;;;2.40;100.00;96756.66;4981868;28;20137;-61
2024/01/07 02:09:22;;;;;;;24.52;12.00;;;;;;;2.40;100.00;96759.31;4978023;28;20201;-61
2024/01/07 02:12:05;;;;;;;22.85;9.93;;;;;;;2.44;100.00;96765.88;4984272;28;20042;-61
2024/01/07 02:14:32;;;;;;;22.02;10.80;;;;;;;2.39;100.00;96760.34;4978781;28;20050;-61
2024/01/07 02:16:59;;;;;;;20.60;10.38;;;;;;;2.45;100.00;96765.66;4987414;28;20046;-61
2024/01/07 02:19:26;;;;;;;21.70;9.90;;;;;;;2.48;100.00;96761.75;4984254;28;20070;-60
2024/01/07 02:21:52;;;;;;;20.58;10.35;;;;;;;2.54;100.00;96768.88;4975335;28;20042;-61
2024/01/07 02:24:19;;;;;;;21.17;10.48;;;;;;;2.49;100.00;96763.38;4966085;28;20045;-61
2024/01/07 02:26:46;;;;;;;24.92;10.85;;;;;;;2.52;100.00;96764.78;4951054;28;20049;-61
2024/01/07 02:29:12;;;;;;;21.55;10.70;;;;;;;2.51;100.00;96757.81;4980445;28;20046;-61
2024/01/07 02:31:39;;;;;;;20.05;9.55;;;;;;;2.48;100.00;96751.06;4980964;28;20046;-61
2024/01/07 02:34:06;;;;;;;26.90;10.35;;;;;;;2.50;100.00;96759.66;4984352;28;20056;-61
2024/01/07 02:36:32;;;;;;;26.85;12.13;;;;;;;2.53;100.00;96764.56;4996330;28;20046;-61
2024/01/07 02:38:59;;;;;;;24.00;11.32;;;;;;;2.52;100.00;96756.78;4986179;28;20038;-61
2024/01/07 02:41:26;;;;;;;22.73;10.88;;;;;;;2.53;100.00;96761.91;4983848;28;20053;-62
2024/01/07 02:43:53;;;;;;;24.80;11.35;;;;;;;2.53;100.00;96755.72;4974402;28;20046;-61
2024/01/07 02:46:20;;;;;;;28.42;11.98;;;;;;;2.52;100.00;96756.78;4975654;28;20038;-61
2024/01/07 02:48:47;;;;;;;24.60;12.18;;;;;;;2.51;100.00;96755.94;4984516;28;20042;-61
2024/01/07 02:51:13;;;;;;;19.58;10.18;;;;;;;2.54;100.00;96760.88;4979434;28;20043;-61
2024/01/07 02:53:40;;;;;;;23.65;10.75;;;;;;;2.59;100.00;96758.34;4984873;28;20414;-61
2024/01/07 02:56:08;;;;;;;27.67;12.27;;;;;;;2.58;100.00;96753.25;4984057;28;20068;-61
2024/01/07 02:58:35;;;;;;;26.38;12.82;;;;;;;2.57;100.00;96751.59;4986146;28;20077;-61
2024/01/07 03:01:02;;;;;;;23.88;11.73;;;;;;;2.53;100.00;96750.38;4983555;28;20514;-61
2024/01/07 03:03:29;;;;;;;26.08;11.60;;;;;;;2.51;100.00;96755.94;4977571;28;20046;-61
2024/01/07 03:05:56;;;;;;;24.08;12.68;;;;;;;2.55;100.00;96759.81;4978169;28;20059;-61
2024/01/07 03:08:22;;;;;;;24.60;11.70;;;;;;;2.55;100.00;96772.38;4979331;28;20046;-61
2024/01/07 03:10:49;;;;;;;23.27;12.18;;;;;;;2.51;100.00;96763.97;4985509;28;20379;-62
2024/01/07 03:13:16;;;;;;;26.00;12.02;;;;;;;2.53;100.00;96756.56;4980199;28;20490;-61
2024/01/07 03:15:42;;;;;;;25.00;13.05;;;;;;;2.54;100.00;96752.03;4985109;28;20122;-61
2024/01/07 03:18:09;;;;;;;27.77;13.25;;;;;;;2.53;100.00;96758.41;4978241;28;20048;-61
2024/01/07 03:20:36;;;;;;;25.75;12.65;;;;;;;2.53;100.00;96761.06;4979241;28;20133;-61
2024/01/07 03:23:02;;;;;;;27.27;13.02;;;;;;;2.55;100.00;96767.03;4982553;28;20117;-61
2024/01/07 03:25:29;;;;;;;26.65;13.82;;;;;;;2.57;100.00;96762.28;4978192;28;20502;-61
2024/01/07 03:27:55;;;;;;;29.40;13.07;;;;;;;2.57;100.00;96764.97;4981057;28;20041;-61
2024/01/07 03:30:22;;;;;;;27.60;13.55;;;;;;;2.50;100.00;96756.97;4985516;28;20053;-62
2024/01/07 03:32:49;;;;;;;27.98;12.43;;;;;;;2.56;100.00;96772.19;4978245;28;20042;-62
2024/01/07 03:35:15;;;;;;;28.42;13.98;;;;;;;2.56;100.00;96758.81;4984748;28;20387;-62
2024/01/07 03:37:42;;;;;;;28.50;13.10;;;;;;;2.55;100.00;96769.72;4986319;28;20526;-62
2024/01/07 03:40:11;;;;;;;30.63;13.70;;;;;;;2.61;100.00;96766.16;4985674;28;20410;-62
2024/01/07 03:42:37;;;;;;;28.10;13.55;;;;;;;2.58;100.00;96763.94;4986737;28;20046;-62
2024/01/07 03:45:05;;;;;;;30.83;13.23;;;;;;;2.59;100.00;96769.03;4978367;28;20108;-61
2024/01/07 03:47:31;;;;;;;26.23;12.95;;;;;;;2.59;100.00;96766.38;4985736;28;20046;-61
2024/01/07 03:49:58;;;;;;;27.10;12.13;;;;;;;2.61;100.00;96768.84;4985668;28;20100;-62
2024/01/07 03:52:25;;;;;;;28.02;12.68;;;;;;;2.63;100.00;96768.63;4986165;28;20276;-62
2024/01/07 03:54:51;;;;;;;25.73;12.18;;;;;;;2.62;100.00;96765.16;4982915;28;20049;-62
2024/01/07 03:57:18;;;;;;;28.25;12.63;;;;;;;2.65;100.00;96756.69;4981637;28;20058;-62
2024/01/07 03:59:44;;;;;;;24.77;11.93;;;;;;;2.66;100.00;96762.84;4986321;28;20571;-61
2024/01/07 04:02:11;;;;;;;25.58;11.50;;;;;;;2.67;100.00;96756.47;4985788;28;20038;-62
2024/01/07 04:04:38;;;;;;;27.25;12.07;;;;;;;2.74;100.00;96754.56;4979275;28;20121;-61
2024/01/07 04:07:05;;;;;;;23.42;12.95;;;;;;;2.73;100.00;96752.94;4983563;28;20561;-62
2024/01/07 04:09:31;;;;;;;28.35;14.05;;;;;;;2.69;100.00;96759.75;4982752;28;20372;-61
2024/01/07 04:11:58;;;;;;;24.90;12.82;;;;;;;2.70;100.00;96758.72;4981747;28;20046;-61
2024/01/07 04:14:27;;;;;;;26.98;13.73;;;;;;;2.67;100.00;96759.13;4983638;28;20132;-61
2024/01/07 04:16:53;;;;;;;23.35;11.32;;;;;;;2.68;100.00;96760.78;4984234;28;20058;-61
2024/01/07 04:19:20;;;;;;;24.33;11.85;;;;;;;2.80;100.00;96758.25;4965736;28;20046;-61
2024/01/07 04:21:47;;;;;;;21.38;11.68;;;;;;;2.75;100.00;96758.88;4958430;28;20042;-61
2024/01/07 04:24:13;;;;;;;23.48;11.07;;;;;;;2.73;100.00;96761.75;4979079;28;20153;-61
2024/01/07 04:26:40;;;;;;;22.27;11.27;;;;;;;2.76;100.00;96762.38;4981319;28;20050;-61
2024/01/07 04:29:07;;;;;;;24.20;11.65;;;;;;;2.70;100.00;96762.19;4979204;28;20057;-61
2024/01/07 04:31:33;;;;;;;22.35;11.65;;;;;;;2.69;100.00;96762.44;4981511;28;20115;-61
2024/01/07 04:34:00;;;;;;;23.30;10.70;;;;;;;2.65;100.00;96764.69;4980228;28;20042;-61
2024/01/07 04:36:26;;;;;;;23.70;10.63;;;;;;;2.68;100.00;96772.28;4982298;28;20076;-61
2024/01/07 04:38:53;;;;;;;23.20;11.23;;;;;;;2.70;100.00;96767.53;4978246;28;20081;-61
2024/01/07 04:41:19;;;;;;;20.90;10.60;;;;;;;2.72;100.00;96767.31;4981384;28;20457;-61
2024/01/07 04:43:46;;;;;;;25.52;11.93;;;;;;;2.69;100.00;96771.25;4981128;28;20145;-61
2024/01/07 04:46:14;;;;;;;20.88;11.65;;;;;;;2.72;100.00;96773.50;4974199;28;20117;-61
2024/01/07 04:48:40;;;;;;;22.38;11.20;;;;;;;2.72;100.00;96781.53;4983257;28;20050;-61
2024/01/07 04:51:07;;;;;;;19.17;10.35;;;;;;;2.72;100.00;96776.19;4983081;28;20434;-61
2024/01/07 04:53:35;;;;;;;20.40;10.35;;;;;;;2.75;100.00;96779.44;4979772;28;20058;-61
2024/01/07 04:56:02;;;;;;;19.17;11.45;;;;;;;2.71;100.00;96777.22;4979345;28;20030;-62
2024/01/07 04:58:29;;;;;;;23.38;10.73;;;;;;;2.75;100.00;96787.47;4981847;28;20042;-62
2024/01/07 05:00:55;;;;;;;20.70;11.10;;;;;;;2.72;100.00;96778.84;4984191;28;20042;-62
2024/01/07 05:03:22;;;;;;;20.52;11.02;;;;;;;2.71;100.00;96787.91;4984604;28;20123;-62
2024/01/07 05:05:48;;;;;;;21.23;10.82;;;;;;;2.68;100.00;96783.00;4979997;28;20034;-62
2024/01/07 05:08:15;;;;;;;21.52;10.77;;;;;;;2.66;100.00;96790.41;4975840;28;21355;-62
2024/01/07 05:10:41;;;;;;;23.83;10.60;;;;;;;2.66;100.00;96789.59;4983727;28;20065;-61
2024/01/07 05:13:08;;;;;;;22.42;11.55;;;;;;;2.62;100.00;96785.72;4979844;28;20359;-62
2024/01/07 05:15:35;;;;;;;23.20;11.18;;;;;;;2.59;100.00;96784.28;4982182;28;20100;-61
2024/01/07 05:18:02;;;;;;;22.45;11.65;;;;;;;2.58;100.00;96793.34;4982375;28;20061;-61
2024/01/07 05:20:29;;;;;;;22.73;11.10;;;;;;;2.58;100.00;96798.69;4979553;28;20130;-61
2024/01/07 05:22:55;;;;;;;20.77;10.23;;;;;;;2.56;100.00;96804.25;4982188;28;20042;-61
2024/01/07 05:25:22;;;;;;;19.30;10.55;;;;;;;2.57;100.00;96802.38;4978272;28;20053;-61
2024/01/07 05:27:49;;;;;;;19.65;10.02;;;;;;;2.58;100.00;96804.84;4978712;28;20081;-61
2024/01/07 05:30:16;;;;;;;19.20;10.40;;;;;;;2.57;100.00;96805.03;4986656;28;20053;-61
2024/01/07 05:32:43;;;;;;;23.27;10.95;;;;;;;2.53;100.00;96811.84;4984544;28;20062;-62
2024/01/07 05:35:10;;;;;;;22.90;10.75;;;;;;;2.50;100.00;96815.78;4979448;28;20112;-61
2024/01/07 05:37:36;;;;;;;18.50;10.20;;;;;;;2.53;100.00;96817.19;4988086;28;20378;-61
2024/01/07 05:40:04;;;;;;;19.92;11.02;;;;;;;2.55;100.00;96821.28;4986041;28;20042;-61
2024/01/07 05:42:31;;;;;;;18.98;9.95;;;;;;;2.57;100.00;96813.06;4984052;28;20096;-61
2024/01/07 05:44:57;;;;;;;16.88;10.38;;;;;;;2.55;100.00;96815.94;4983574;28;20058;-62
2024/01/07 05:47:24;;;;;;;18.48;9.77;;;;;;;2.58;100.00;96825.41;4980801;28;20137;-62
2024/01/07 05:49:51;;;;;;;17.50;9.15;;;;;;;2.58;100.00;96825.41;4982142;28;20052;-62
2024/01/07 05:52:18;;;;;;;20.98;10.43;;;;;;;2.51;100.00;96829.97;4983475;28;20468;-62
2024/01/07 05:54:45;;;;;;;22.85;10.73;;;;;;;2.47;100.00;96829.59;4977621;28;20231;-62
2024/01/07 05:57:12;;;;;;;21.00;10.20;;;;;;;2.49;100.00;96830.19;4983477;28;20066;-62
2024/01/07 05:59:38;;;;;;;19.17;10.43;;;;;;;2.47;100.00;96833.06;4956117;28;20238;-61
2024/01/07 06:02:05;;;;;;;19.90;10.93;;;;;;;2.47;100.00;96833.06;4966505;28;20112;-61
2024/01/07 06:04:32;;;;;;;17.55;10.50;;;;;;;2.46;100.00;96834.09;4983202;28;20490;-61
2024/01/07 06:06:58;;;;;;;17.50;9.75;;;;;;;2.52;100.00;96840.44;4985853;28;20042;-61
2024/01/07 06:09:25;;;;;;;20.75;9.82;;;;;;;2.59;100.00;96835.06;4981577;28;20117;-61
2024/01/07 06:11:51;;;;;;;20.50;10.45;;;;;;;2.62;100.00;96839.16;4982708;28;20042;-61
2024/01/07 06:14:18;;;;;;;16.63;8.55;;;;;;;2.57;100.00;96829.09;4967140;28;20054;-61
2024/01/07 06:16:44;;;;;;;15.82;8.80;;;;;;;2.60;100.00;96831.34;4962825;28;20107;-61
2024/01/07 06:19:11;;;;;;;17.50;8.60;;;;;;;2.53;100.00;96841.25;4986099;28;20054;-61
2024/01/07 06:21:38;;;;;;;16.27;9.18;;;;;;;2.46;100.00;96833.28;4982214;28;20450;-62
2024/01/07 06:24:04;;;;;;;17.92;9.55;;;;;;;2.44;100.00;96846.03;4981726;28;20504;-61
2024/01/07 06:26:31;;;;;;;21.48;10.70;;;;;;;2.43;100.00;96845.22;4987723;28;20390;-61
2024/01/07 06:28:57;;;;;;;21.15;11.05;;;;;;;2.43;100.00;96845.22;4987028;28;20040;-62
2024/01/07 06:31:24;;;;;;;19.13;10.40;;;;;;;2.40;100.00;96847.50;4982009;28;20042;-61
2024/01/07 06:33:51;;;;;;;18.40;9.88;;;;;;;2.42;100.00;96853.44;4981925;28;20054;-61
2024/01/07 06:36:18;;;;;;;15.48;8.45;;;;;;;2.39;100.00;96852.00;4980919;28;20034;-61
2024/01/07 06:38:44;;;;;;;17.00;10.13;;;;;;;2.44;100.00;96867.41;4984082;28;20050;-61
2024/01/07 06:41:12;;;;;;;20.70;9.50;;;;;;;2.49;100.00;96861.41;4984997;28;20038;-61
2024/01/07 06:43:39;;;;;;;17.70;9.27;;;;;;;2.42;100.00;96864.13;4979607;28;20070;-61
2024/01/07 06:46:05;;;;;;;18.23;9.98;;;;;;;2.39;100.00;96867.25;4982990;28;20510;-62
2024/01/07 06:48:32;;;;;;;17.15;9.18;;;;;;;2.39;100.00;96864.56;4981073;28;20054;-61
2024/01/07 06:50:59;;;;;;;16.17;7.53;;;;;;;2.44;100.00;96868.22;4985338;28;20117;-61
2024/01/07 06:53:25;;;;;;;17.67;9.23;;;;;;;2.36;100.00;96862.31;4981384;28;20034;-61
2024/01/07 06:55:52;;;;;;;16.65;10.00;;;;;;;2.34;100.00;96867.88;4979477;28;20042;-61
2024/01/07 06:58:19;;;;;;;15.38;8.73;;;;;;;2.33;100.00;96876.91;4979170;28;20680;-61
2024/01/07 07:00:45;;;;;;;13.82;8.82;;;;;;;2.37;100.00;96878.13;4979622;28;20696;-61
2024/01/07 07:03:12;;;;;;;14.40;8.95;;;;;;;2.36;100.00;96878.34;4980853;28;20046;-61
2024/01/07 07:05:38;;;;;;;15.07;8.63;;;;;;;2.39;100.00;96880.59;4980862;28;20053;-62
2024/01/07 07:08:05;;;;;;;18.52;9.55;;;;;;;2.47;100.00;96880.38;4983181;28;20113;-62
2024/01/07 07:10:32;;;;;;;16.65;9.10;;;;;;;2.39;100.00;96885.94;4980355;28;20058;-62
2024/01/07 07:12:58;;;;;;;17.08;8.93;;;;;;;2.32;100.00;96893.97;4981087;28;20031;-62
2024/01/07 07:15:26;;;;;;;14.25;8.80;;;;;;;2.44;100.00;96886.13;4975895;28;20047;-63
2024/01/07 07:17:55;;;;;;;16.75;9.45;;;;;;;2.39;100.00;96894.75;4984507;28;20122;-46
2024/01/07 07:20:22;;;;;;;16.52;9.50;;;;;;;2.63;100.00;96912.97;4980606;28;20069;-49
2024/01/07 07:22:48;;;;;;;15.93;9.00;;;;;;;2.60;100.00;96906.19;4978131;28;20043;-48
2024/01/07 07:25:15;;;;;;;17.27;10.18;;;;;;;2.64;100.00;96910.09;4975914;28;20039;-51
2024/01/07 07:27:41;;;;;;;15.55;8.98;;;;;;;2.81;100.00;96907.75;4984142;28;20069;-47
2024/01/07 07:30:08;;;;;;;13.10;9.18;;;;;;;2.82;100.00;96905.88;4974273;28;20035;-48
2024/01/07 07:32:35;;;;;;;15.30;8.90;;;;;;;2.85;100.00;96908.16;4978974;28;20055;-49
2024/01/07 07:35:02;;;;;;;15.98;9.70;;;;;;;2.78;100.00;96910.03;4981427;28;20136;-48
2024/01/07 07:37:29;;;;;;;15.95;9.68;;;;;;;2.75;100.00;96913.13;4977499;28;20066;-46
2024/01/07 07:39:55;;;;;;;18.08;9.48;;;;;;;2.70;100.00;96924.47;4981543;28;20039;-45
2024/01/07 07:42:22;;;;;;;13.57;8.02;;;;;;;2.78;100.00;96921.56;4984053;28;20043;-48
2024/01/07 07:44:48;;;;;;;16.25;9.20;;;;;;;2.65;100.00;96924.28;4978005;28;20046;-61
2024/01/07 07:47:15;;;;;;;13.05;8.55;;;;;;;2.59;100.00;96932.09;4980218;28;20045;-62
2024/01/07 07:49:41;;;;;;;17.67;10.05;;;;;;;2.60;100.00;96932.94;4978181;28;20050;-61
2024/01/07 07:52:08;;;;;;;13.52;7.97;;;;;;;2.49;100.00;96936.25;4978282;28;20050;-62
2024/01/07 07:54:38;;;;;;;17.45;10.13;;;;;;;2.39;100.00;96940.19;4982768;28;20038;-61
2024/01/07 07:57:05;;;;;;;14.23;9.10;;;;;;;2.34;100.00;96943.50;4984117;28;20049;-60
2024/01/07 07:59:31;;;;;;;15.75;9.43;;;;;;;2.29;100.00;96942.50;4979164;28;20049;-62
2024/01/07 08:01:59;;;;;;;14.85;8.75;;;;;;;2.31;100.00;96940.41;4982935;28;20042;-62
2024/01/07 08:04:26;;;;;;;13.45;8.45;;;;;;;2.34;100.00;96948.84;4982888;28;20046;-61
2024/01/07 08:06:53;;;;;;;17.05;9.48;;;;;;;2.23;100.00;96952.16;4972369;28;20049;-62
2024/01/07 08:09:20;;;;;;;15.48;8.85;;;;;;;2.08;100.00;96952.38;4965180;28;20043;-61
2024/01/07 08:11:46;;;;;;;13.30;8.32;;;;;;;2.09;100.00;96951.34;4959612;28;20065;-61
2024/01/07 08:14:13;;;;;;;13.07;7.47;;;;;;;2.04;100.00;96951.16;4980049;28;20046;-62
2024/01/07 08:16:39;;;;;;;14.80;8.43;;;;;;;1.91;100.00;96963.50;4973769;28;20045;-61
2024/01/07 08:19:06;;;;;;;13.05;7.40;;;;;;;1.83;100.00;96963.69;4977042;28;20042;-62
2024/01/07 08:21:32;;;;;;;12.93;7.15;;;;;;;1.72;100.00;96967.81;4975594;28;20594;-61
2024/01/07 08:23:59;;;;;;;12.18;7.43;;;;;;;1.61;100.00;96971.06;4981545;28;20054;-61
2024/01/07 08:26:25;;;;;;;12.45;7.18;;;;;;;1.60;100.00;96972.94;4980397;28;20756;-62
2024/01/07 08:28:52;;;;;;;13.02;7.45;;;;;;;1.59;100.00;96978.47;4982075;28;20045;-61
2024/01/07 08:31:19;;;;;;;13.75;7.78;;;;;;;1.59;100.00;96971.31;4979844;28;20038;-61
2024/01/07 08:33:46;;;;;;;13.50;7.50;;;;;;;1.48;100.00;96974.56;4977909;28;20124;-62
2024/01/07 08:36:12;;;;;;;13.65;7.50;;;;;;;1.46;100.00;96981.94;4980416;28;20073;-62
2024/01/07 08:38:39;;;;;;;14.73;8.30;;;;;;;1.41;100.00;96986.03;4980029;28;20057;-60
2024/01/07 08:41:06;;;;;;;13.32;7.10;;;;;;;1.47;100.00;96989.75;4977530;28;20161;-61
2024/01/07 08:43:32;;;;;;;13.90;7.68;;;;;;;1.50;100.00;96991.19;4976941;28;20060;-61
2024/01/07 08:45:59;;;;;;;15.38;8.38;;;;;;;1.59;100.00;96983.81;4975169;28;20102;-61
2024/01/07 08:48:25;;;;;;;14.10;8.50;;;;;;;1.55;100.00;96984.22;4981682;28;20061;-62
2024/01/07 08:50:52;;;;;;;13.82;8.60;;;;;;;1.54;100.00;96976.41;4981555;28;20057;-66
2024/01/07 08:53:20;;;;;;;13.05;7.63;;;;;;;1.43;100.00;96989.34;4981532;28;20588;-61
2024/01/07 08:55:46;;;;;;;12.45;7.55;;;;;;;1.43;100.00;96985.84;4976369;28;20832;-61
2024/01/07 08:58:14;;;;;;;14.25;7.65;;;;;;;1.46;100.00;96990.78;4975459;28;20075;-62
2024/01/07 09:00:41;;;;;;;15.57;8.45;;;;;;;1.51;100.00;96982.16;4977182;28;20105;-61
2024/01/07 09:03:07;;;;;;;13.68;7.80;;;;;;;1.54;100.00;96985.25;4983815;28;20054;-62
2024/01/07 09:05:34;;;;;;;16.02;9.52;;;;;;;1.60;100.00;96991.63;4984355;28;20050;-62
2024/01/07 09:08:00;;;;;;;11.90;6.43;;;;;;;1.66;100.00;96992.66;4985176;28;20065;-62
2024/01/07 09:10:31;;;;;;;12.15;7.25;;;;;;;1.74;100.00;96996.97;4985540;28;20514;-61
2024/01/07 09:12:57;;;;;;;10.68;6.78;;;;;;;1.63;100.00;96993.06;4985839;28;20038;-62
2024/01/07 09:15:24;;;;;;;10.90;7.03;;;;;;;1.63;100.00;97009.06;4984033;28;20135;-61
2024/01/07 09:17:50;;;;;;;14.55;8.15;;;;;;;1.66;100.00;97001.47;4986053;28;20093;-62
2024/01/07 09:20:17;;;;;;;14.82;8.65;;;;;;;1.64;100.00;97002.69;4980383;28;20130;-63
2024/01/07 09:22:44;;;;;;;18.77;10.65;;;;;;;1.64;100.00;97003.53;4983695;28;20046;-62
2024/01/07 09:25:11;;;;;;;17.85;8.77;;;;;;;1.68;100.00;97010.09;4979860;28;20045;-62
2024/01/07 09:27:37;;;;;;;16.05;8.13;;;;;;;1.70;100.00;97015.25;4981618;28;20102;-62
2024/01/07 09:30:05;;;;;;;13.45;8.35;;;;;;;1.76;100.00;97016.25;4984374;28;20073;-62
2024/01/07 09:32:32;;;;;;;12.73;7.88;;;;;;;1.74;100.00;97018.31;4981193;28;20105;-63
2024/01/07 09:35:05;;;;;;;18.17;12.73;;;;;;;1.75;100.00;97017.28;4979192;28;20473;-62
2024/01/07 09:37:32;;;;;;;13.50;8.50;;;;;;;1.74;100.00;97015.66;4987390;28;20074;-62
2024/01/07 09:39:59;;;;;;;12.73;7.97;;;;;;;1.70;100.00;97023.25;4982571;28;20092;-62
2024/01/07 09:42:25;;;;;;;15.13;9.10;;;;;;;1.64;100.00;97030.22;4982036;28;20117;-61
2024/01/07 09:44:52;;;;;;;13.32;7.57;;;;;;;1.69;100.00;97027.75;4982272;28;20053;-62
2024/01/07 09:47:20;;;;;;;14.07;8.07;;;;;;;1.78;100.00;97033.75;4983321;28;20039;-61
2024/01/07 09:49:47;;;;;;;13.93;7.53;;;;;;;1.83;100.00;97029.63;4983576;28;20660;-62
2024/01/07 09:52:13;;;;;;;13.70;8.55;;;;;;;1.86;100.00;97024.69;4979633;28;20042;-62
2024/01/07 09:54:40;;;;;;;13.23;7.43;;;;;;;1.89;100.00;97032.31;4984372;28;20675;-62
2024/01/07 09:57:08;;;;;;;11.70;6.72;;;;;;;1.90;100.00;97023.25;4984629;28;20599;-61
2024/01/07 09:59:36;;;;;;;12.35;8.02;;;;;;;1.87;100.00;97026.34;4982969;28;20566;-62
2024/01/07 10:02:03;;;;;;;10.23;5.93;;;;;;;1.84;100.00;97028.59;4984265;28;20049;-61
2024/01/07 10:04:31;;;;;;;13.43;7.10;;;;;;;1.79;100.00;97023.88;4967000;28;20137;-61
2024/01/07 10:06:58;;;;;;;10.98;5.93;;;;;;;1.90;100.00;97028.59;4965842;28;20211;-62
2024/01/07 10:09:30;;;;;;;9.90;6.13;;;;;;;1.83;100.00;97033.09;4978021;28;20545;-62
2024/01/07 10:11:56;;;;;;;;;;;;;;;1.74;100.00;97037.00;4981018;28;20050;-62
2024/01/07 10:14:24;;;;;;;12.52;6.03;;;;;;;1.72;100.00;97039.03;4983070;28;19930;-62
2024/01/07 10:16:53;;;;;;;10.60;5.90;;;;;;;1.70;100.00;97039.28;4983400;28;20038;-62
2024/01/07 10:19:22;;;;;;;8.27;5.28;;;;;;;1.83;100.00;97040.31;4984515;28;20046;-62
2024/01/07 10:22:02;;;;;;;10.00;5.80;;;;;;;1.80;100.00;97044.19;4979406;28;20121;-62
2024/01/07 10:24:40;;;;;;;8.35;4.15;;;;;;;1.78;100.00;97040.91;4973100;28;20649;-62
2024/01/07 10:27:07;;;;;;;11.27;6.38;;;;;;;1.66;100.00;97038.84;4983845;28;20105;-62
2024/01/07 10:29:34;;;;;;;9.85;5.75;;;;;;;1.43;100.00;97047.19;4976581;28;20767;-62
2024/01/07 10:32:03;;;;;;;9.80;5.35;;;;;;;1.47;100.00;97040.44;4981329;28;20042;-62
2024/01/07 10:34:36;;;;;;;9.68;5.47;;;;;;;1.46;100.00;97046.81;4982810;28;20577;-61
2024/01/07 10:37:08;;;;;;;9.85;5.35;;;;;;;1.49;100.00;97045.56;4973665;28;20030;-64
2024/01/07 10:39:35;;;;;;;9.05;5.22;;;;;;;1.42;100.00;97051.72;4981307;28;20580;-65
2024/01/07 10:42:02;;;;;;;10.15;5.45;;;;;;;1.49;100.00;97037.56;4973468;28;20043;-64
2024/01/07 10:44:31;;;;;;;8.55;4.80;;;;;;;1.43;100.00;97039.19;4977941;28;20049;-64
2024/01/07 10:46:58;;;;;;;8.82;5.30;;;;;;;1.45;100.00;97041.66;4975439;28;20574;-64
2024/01/07 10:49:28;;;;;;;11.25;5.63;;;;;;;1.51;100.00;97041.69;4982035;28;20042;-64
2024/01/07 10:52:06;;;;;;;10.43;6.15;;;;;;;1.50;100.00;97045.38;4974794;28;20141;-64
2024/01/07 10:54:35;;;;;;;11.00;6.70;;;;;;;1.50;100.00;97041.88;4979586;28;20061;-64
2024/01/07 10:57:13;;;;;;;9.80;5.30;;;;;;;1.50;100.00;97045.38;4982574;28;20038;-64
2024/01/07 10:59:40;;;;;;;12.30;6.90;;;;;;;1.49;100.00;97046.41;4982768;28;20104;-64
2024/01/07 11:02:09;;;;;;;11.85;6.40;;;;;;;1.62;100.00;97042.13;4977081;28;20074;-64
2024/01/07 11:04:57;;;;;;;10.55;5.57;;;;;;;1.76;100.00;97045.63;4975979;28;20077;-64
2024/01/07 11:07:37;;;;;;;10.02;5.68;;;;;;;1.74;100.00;97039.69;4979807;28;20105;-64
2024/01/07 11:10:12;;;;;;;9.25;5.18;;;;;;;1.58;100.00;97055.03;4981047;28;20464;-64
2024/01/07 11:12:38;;;;;;;12.00;6.63;;;;;;;1.50;100.00;97049.88;4980567;28;20043;-66
2024/01/07 11:15:05;;;;;;;9.48;4.95;;;;;;;1.64;100.00;97056.91;4977083;28;20038;-65
2024/01/07 11:17:32;;;;;;;8.38;5.40;;;;;;;1.69;100.00;97050.94;4983430;28;20120;-64
2024/01/07 11:20:02;;;;;;;14.25;7.38;;;;;;;1.56;100.00;97046.44;4981067;28;20046;-65
2024/01/07 11:22:29;;;;;;;8.35;5.55;;;;;;;1.53;100.00;97052.16;4981200;28;20042;-64